Time;durP1;ratioP1;P1;durP2;ratioP2;P2;SDS_P1;SDS_P2;PMS_P1;PMS_P2;Temp;Humidity;BMP_temperature;BMP_pressure;BME280_temperature;BME280_humidity;BME280_pressure;Samples;Min_cycle;Max_cycle;Signal;HPM_P1;HPM_P2
2021/03/23 00:01:08;;;;;;;7.20;4.82;;;4.10;66.40;;;;;;5052314;28;20029;-60
2021/03/23 00:03:42;;;;;;;7.93;5.15;;;4.10;66.00;;;;;;5043093;28;20056;-60
2021/03/23 00:06:09;;;;;;;6.13;4.50;;;4.10;65.90;;;;;;5051191;28;20032;-60
2021/03/23 00:08:41;;;;;;;6.15;4.38;;;4.10;65.90;;;;;;5053882;28;20021;-59
2021/03/23 00:11:08;;;;;;;;;;;4.00;66.10;;;;;;5054344;28;20100;-60
2021/03/23 00:13:36;;;;;;;6.28;4.03;;;4.00;66.00;;;;;;5053948;28;19912;-60
2021/03/23 00:16:02;;;;;;;6.50;4.28;;;4.00;66.00;;;;;;5053700;28;20033;-60
2021/03/23 00:18:28;;;;;;;7.78;4.82;;;4.00;65.80;;;;;;5050802;28;20024;-59
2021/03/23 00:20:53;;;;;;;7.18;4.28;;;3.90;65.80;;;;;;5053881;28;20040;-60
2021/03/23 00:23:19;;;;;;;7.18;4.30;;;4.00;65.70;;;;;;5053835;28;20029;-60
2021/03/23 00:25:45;;;;;;;5.80;3.95;;;3.90;65.80;;;;;;5053668;28;20096;-60
2021/03/23 00:28:11;;;;;;;6.60;4.10;;;3.90;65.80;;;;;;5054002;28;20052;-60
2021/03/23 00:30:36;;;;;;;6.00;4.22;;;3.90;65.90;;;;;;5052607;28;20021;-60
2021/03/23 00:33:02;;;;;;;6.18;3.85;;;3.90;65.80;;;;;;5051136;28;20120;-60
2021/03/23 00:35:28;;;;;;;5.07;4.00;;;3.90;65.50;;;;;;5051064;28;20025;-60
2021/03/23 00:37:56;;;;;;;4.20;3.65;;;3.90;65.40;;;;;;5057849;28;20025;-60
2021/03/23 00:40:27;;;;;;;5.35;3.10;;;3.90;65.40;;;;;;5049397;28;20535;-60
2021/03/23 00:42:54;;;;;;;6.35;3.85;;;3.90;65.50;;;;;;5037652;28;20040;-60
2021/03/23 00:45:20;;;;;;;4.82;3.72;;;3.90;65.50;;;;;;5037913;28;20064;-60
2021/03/23 00:47:47;;;;;;;6.10;3.85;;;3.90;65.60;;;;;;5037508;28;20049;-59
2021/03/23 00:50:14;;;;;;;4.43;3.47;;;3.90;65.80;;;;;;5045737;28;20066;-58
2021/03/23 00:52:39;;;;;;;7.10;3.85;;;3.90;65.80;;;;;;5052490;28;20464;-59
2021/03/23 00:55:07;;;;;;;5.35;3.53;;;3.90;65.80;;;;;;5057426;28;20025;-60
2021/03/23 00:57:32;;;;;;;5.70;3.90;;;3.90;65.50;;;;;;5057524;28;20032;-60
2021/03/23 00:59:58;;;;;;;6.63;3.78;;;3.90;65.50;;;;;;5057315;28;20079;-60
2021/03/23 01:02:24;;;;;;;5.65;4.15;;;3.90;65.40;;;;;;5052457;28;20049;-60
2021/03/23 01:04:50;;;;;;;5.35;3.78;;;4.00;65.50;;;;;;5041265;28;20025;-59
2021/03/23 01:07:16;;;;;;;6.00;3.80;;;4.00;65.30;;;;;;5037507;28;20400;-60
2021/03/23 01:09:41;;;;;;;5.20;3.70;;;4.00;65.30;;;;;;5037184;28;20030;-60
2021/03/23 01:12:09;;;;;;;6.47;3.33;;;4.00;65.20;;;;;;5037116;28;20453;-60
2021/03/23 01:14:36;;;;;;;6.60;3.42;;;4.00;65.10;;;;;;5037969;28;20025;-60
2021/03/23 01:17:02;;;;;;;5.30;3.50;;;4.00;65.00;;;;;;5056363;28;20086;-60
2021/03/23 01:19:28;;;;;;;4.80;3.50;;;4.00;65.20;;;;;;5057076;28;20021;-60
2021/03/23 01:21:54;;;;;;;5.47;3.90;;;3.90;65.20;;;;;;5056917;28;20025;-60
2021/03/23 01:24:19;;;;;;;4.65;3.38;;;4.00;65.30;;;;;;5056458;28;20021;-59
2021/03/23 01:26:45;;;;;;;5.75;3.67;;;3.90;65.30;;;;;;5056860;28;20025;-60
2021/03/23 01:29:11;;;;;;;5.25;3.75;;;3.90;65.20;;;;;;5056918;28;20025;-59
2021/03/23 01:31:36;;;;;;;5.88;3.20;;;3.90;65.30;;;;;;5057002;28;20057;-60
2021/03/23 01:34:03;;;;;;;8.38;3.50;;;3.90;65.30;;;;;;5054599;28;20103;-60
2021/03/23 01:36:29;;;;;;;6.13;3.75;;;3.90;65.30;;;;;;5037028;28;20028;-60
2021/03/23 01:38:55;;;;;;;6.15;3.53;;;3.90;65.40;;;;;;5036861;28;20037;-60
2021/03/23 01:41:20;;;;;;;5.97;4.05;;;3.90;65.30;;;;;;5036869;28;20036;-60
2021/03/23 01:43:46;;;;;;;4.22;3.38;;;3.90;65.50;;;;;;5036800;28;20036;-60
2021/03/23 01:46:40;;;;;;;4.78;3.70;;;3.90;65.60;;;;;;5047337;28;20095;-60
2021/03/23 01:49:11;;;;;;;6.05;3.55;;;4.00;65.90;;;;;;5055761;28;20032;-60
2021/03/23 01:51:37;;;;;;;4.55;3.40;;;3.90;66.00;;;;;;5056687;28;20021;-60
2021/03/23 01:54:09;;;;;;;5.68;3.28;;;3.90;66.00;;;;;;5056402;28;20056;-60
2021/03/23 01:56:35;;;;;;;5.85;3.60;;;3.90;66.10;;;;;;5038899;28;20095;-59
2021/03/23 01:59:03;;;;;;;5.95;3.90;;;3.90;66.30;;;;;;5036662;28;20037;-60
2021/03/23 02:01:30;;;;;;;5.05;3.22;;;3.90;66.30;;;;;;5035855;28;20054;-60
2021/03/23 02:03:56;;;;;;;5.60;3.80;;;3.90;66.50;;;;;;5036939;28;20029;-60
2021/03/23 02:06:41;;;;;;;4.65;3.60;;;3.90;66.50;;;;;;5055456;28;20589;-60
2021/03/23 02:09:32;;;;;;;4.18;3.17;;;3.90;66.40;;;;;;5055930;28;20021;-60
2021/03/23 02:12:01;;;;;;;5.90;3.70;;;3.90;66.50;;;;;;5048668;28;20037;-60
2021/03/23 02:14:31;;;;;;;5.35;3.28;;;3.90;66.50;;;;;;5055887;28;20112;-60
2021/03/23 02:17:23;;;;;;;3.53;3.10;;;3.90;66.60;;;;;;5056318;28;20016;-59
2021/03/23 02:19:54;;;;;;;6.95;3.33;;;3.90;66.50;;;;;;5046918;28;20029;-60
2021/03/23 02:22:30;;;;;;;5.05;3.20;;;3.90;66.50;;;;;;5035953;28;20018;-60
2021/03/23 02:24:57;;;;;;;4.18;3.10;;;3.90;66.50;;;;;;5035946;28;20080;-60
2021/03/23 02:27:24;;;;;;;5.07;3.30;;;3.90;66.30;;;;;;5036006;28;20481;-60
2021/03/23 02:29:52;;;;;;;5.75;3.30;;;3.90;66.40;;;;;;5035926;28;20025;-60
2021/03/23 02:32:18;;;;;;;5.50;3.42;;;3.90;66.50;;;;;;5035788;28;20029;-59
2021/03/23 02:34:44;;;;;;;3.70;2.90;;;3.80;66.60;;;;;;5036291;28;20365;-59
2021/03/23 02:37:09;;;;;;;3.95;2.97;;;3.90;66.70;;;;;;5041799;28;20026;-60
2021/03/23 02:39:36;;;;;;;3.70;3.22;;;3.90;66.80;;;;;;5054886;28;20021;-60
2021/03/23 02:42:03;;;;;;;4.85;2.75;;;3.90;66.50;;;;;;5055559;28;20035;-60
2021/03/23 02:44:37;;;;;;;6.05;3.10;;;3.90;66.70;;;;;;5055315;28;20119;-60
2021/03/23 02:47:03;;;;;;;3.22;2.65;;;3.90;66.60;;;;;;5055508;28;20086;-60
2021/03/23 02:49:29;;;;;;;5.00;3.03;;;3.90;67.20;;;;;;5055390;28;20037;-60
2021/03/23 02:51:54;;;;;;;3.97;2.92;;;3.90;66.50;;;;;;5049529;28;20017;-60
2021/03/23 02:54:20;;;;;;;5.03;2.90;;;3.90;66.50;;;;;;5050944;28;20025;-59
2021/03/23 02:56:45;;;;;;;5.97;3.38;;;3.90;66.50;;;;;;5034838;28;20026;-60
2021/03/23 02:59:11;;;;;;;4.07;2.75;;;3.90;66.10;;;;;;5035146;28;20365;-60
2021/03/23 03:01:37;;;;;;;5.35;2.80;;;3.80;66.00;;;;;;5035100;28;20077;-60
2021/03/23 03:04:04;;;;;;;4.60;3.10;;;3.80;66.00;;;;;;5035058;28;20032;-60
2021/03/23 03:06:30;;;;;;;5.32;3.03;;;3.80;65.90;;;;;;5040119;28;20068;-59
2021/03/23 03:08:56;;;;;;;3.72;2.70;;;3.70;65.80;;;;;;5042541;28;20417;-59
2021/03/23 03:11:21;;;;;;;3.90;2.88;;;3.70;65.70;;;;;;5054866;28;20029;-60
2021/03/23 03:13:47;;;;;;;4.30;2.90;;;3.70;65.80;;;;;;5054980;28;20025;-60
2021/03/23 03:16:12;;;;;;;3.40;2.42;;;3.70;65.90;;;;;;5054778;28;20028;-60
2021/03/23 03:18:38;;;;;;;3.58;2.65;;;3.60;65.80;;;;;;5055097;28;20110;-59
2021/03/23 03:21:04;;;;;;;4.72;3.08;;;3.60;65.60;;;;;;5054719;28;20381;-60
2021/03/23 03:23:30;;;;;;;3.45;2.58;;;3.60;65.40;;;;;;5047249;28;20406;-60
2021/03/23 03:25:56;;;;;;;3.30;2.60;;;3.60;65.30;;;;;;5034652;28;20022;-60
2021/03/23 03:28:22;;;;;;;3.42;2.70;;;3.60;65.30;;;;;;5034743;28;20120;-60
2021/03/23 03:30:48;;;;;;;3.97;2.78;;;3.50;65.30;;;;;;5034786;28;20083;-60
2021/03/23 03:33:17;;;;;;;5.20;2.80;;;3.50;65.50;;;;;;5034730;28;20021;-60
2021/03/23 03:35:44;;;;;;;3.05;2.75;;;3.50;65.40;;;;;;5048818;28;20075;-60
2021/03/23 03:38:10;;;;;;;5.45;3.30;;;3.50;65.50;;;;;;5034623;28;20022;-60
2021/03/23 03:40:39;;;;;;;3.17;2.72;;;3.40;65.30;;;;;;5034596;28;20030;-59
2021/03/23 03:43:06;;;;;;;6.15;3.00;;;3.40;65.10;;;;;;5034810;28;20025;-60
2021/03/23 03:45:32;;;;;;;2.95;2.55;;;3.40;65.60;;;;;;5034142;28;20389;-59
2021/03/23 03:47:58;;;;;;;3.08;2.67;;;3.30;64.80;;;;;;5034609;28;20026;-60
2021/03/23 03:50:26;;;;;;;4.28;2.60;;;3.30;64.70;;;;;;5034412;28;20087;-59
2021/03/23 03:52:52;;;;;;;4.88;3.08;;;3.30;64.90;;;;;;5034583;28;20022;-59
2021/03/23 03:55:20;;;;;;;4.88;2.78;;;3.20;64.70;;;;;;5034380;28;20040;-60
2021/03/23 03:57:46;;;;;;;3.90;2.80;;;3.20;65.20;;;;;;5034100;28;20017;-60
2021/03/23 04:00:14;;;;;;;3.05;2.60;;;3.20;64.90;;;;;;5034264;28;20491;-58
2021/03/23 04:02:40;;;;;;;3.15;2.70;;;3.30;64.90;;;;;;5033994;28;20045;-60
2021/03/23 04:05:06;;;;;;;4.15;2.95;;;3.20;64.60;;;;;;5034731;28;20030;-60
2021/03/23 04:07:32;;;;;;;3.58;2.63;;;3.30;64.80;;;;;;5052108;28;20044;-60
2021/03/23 04:09:58;;;;;;;4.28;2.97;;;3.20;64.70;;;;;;5052146;28;20029;-60
2021/03/23 04:12:23;;;;;;;2.85;2.65;;;3.20;64.70;;;;;;5048756;28;20104;-60
2021/03/23 04:14:49;;;;;;;5.10;2.90;;;3.30;64.70;;;;;;5033939;28;20021;-60
2021/03/23 04:17:15;;;;;;;4.15;3.05;;;3.30;64.70;;;;;;5034152;28;20366;-59
2021/03/23 04:19:41;;;;;;;2.95;2.45;;;3.30;64.50;;;;;;5034587;28;20028;-58
2021/03/23 04:22:06;;;;;;;4.60;2.55;;;3.20;64.60;;;;;;5034116;28;20029;-60
2021/03/23 04:24:32;;;;;;;3.30;2.60;;;3.20;64.60;;;;;;5033887;28;20037;-59
2021/03/23 04:26:59;;;;;;;4.65;2.88;;;3.20;64.60;;;;;;5034012;28;20079;-59
2021/03/23 04:29:25;;;;;;;4.35;3.00;;;3.30;64.60;;;;;;5034216;28;20033;-60
2021/03/23 04:31:51;;;;;;;5.28;3.15;;;3.20;64.70;;;;;;5034190;28;20033;-60
2021/03/23 04:34:17;;;;;;;3.47;2.55;;;3.30;64.70;;;;;;5041078;28;20104;-60
2021/03/23 04:36:43;;;;;;;3.38;2.70;;;3.30;64.70;;;;;;5040927;28;20104;-59
2021/03/23 04:39:11;;;;;;;3.30;2.70;;;3.30;64.50;;;;;;5033930;28;20017;-60
2021/03/23 04:41:38;;;;;;;2.75;2.42;;;3.30;64.60;;;;;;5033959;28;20032;-60
2021/03/23 04:44:05;;;;;;;3.33;2.42;;;3.40;64.90;;;;;;5040921;28;20032;-60
2021/03/23 04:46:32;;;;;;;3.22;2.72;;;3.40;64.60;;;;;;5053557;28;20028;-60
2021/03/23 04:48:58;;;;;;;3.08;2.53;;;3.50;64.50;;;;;;5053548;28;20029;-60
2021/03/23 04:51:28;;;;;;;4.38;2.60;;;3.50;64.30;;;;;;5053796;28;20056;-60
2021/03/23 04:54:05;;;;;;;3.75;2.90;;;3.60;64.30;;;;;;5037702;28;20100;-60
2021/03/23 04:56:37;;;;;;;2.83;2.33;;;3.70;63.80;;;;;;5033694;28;20069;-60
2021/03/23 04:59:04;;;;;;;4.72;2.63;;;3.80;64.10;;;;;;5033550;28;20030;-60
2021/03/23 05:01:29;;;;;;;3.22;2.58;;;3.80;63.80;;;;;;5033502;28;20394;-60
2021/03/23 05:04:00;;;;;;;3.67;2.40;;;3.90;63.50;;;;;;5033511;28;20025;-60
2021/03/23 05:06:27;;;;;;;4.73;2.60;;;4.00;63.10;;;;;;5042620;28;20028;-60
2021/03/23 05:08:53;;;;;;;4.28;2.90;;;4.10;63.40;;;;;;5048747;28;20745;-59
2021/03/23 05:11:25;;;;;;;5.32;2.80;;;4.20;63.40;;;;;;5053263;28;20104;-59
2021/03/23 05:13:50;;;;;;;4.28;2.30;;;4.40;63.70;;;;;;5053329;28;20021;-60
2021/03/23 05:16:17;;;;;;;3.40;2.72;;;4.60;63.80;;;;;;5038525;28;20108;-60
2021/03/23 05:18:42;;;;;;;3.03;2.30;;;4.90;63.50;;;;;;5033176;28;20033;-60
2021/03/23 05:21:08;;;;;;;4.20;2.30;;;5.20;63.20;;;;;;5034921;28;20029;-58
2021/03/23 05:23:35;;;;;;;3.30;2.70;;;5.50;62.60;;;;;;5037247;28;20076;-60
2021/03/23 05:26:01;;;;;;;3.50;2.35;;;5.80;61.50;;;;;;5036934;28;20433;-58
2021/03/23 05:28:27;;;;;;;3.45;2.13;;;6.20;61.00;;;;;;5048867;28;20071;-60
2021/03/23 05:30:53;;;;;;;4.15;2.33;;;6.40;59.80;;;;;;5056807;28;20057;-60
2021/03/23 05:33:20;;;;;;;2.90;2.05;;;6.50;59.30;;;;;;5055667;28;20035;-60
2021/03/23 05:35:45;;;;;;;2.40;2.20;;;6.70;58.70;;;;;;5050164;28;20358;-60
2021/03/23 05:38:11;;;;;;;3.33;2.45;;;6.90;58.20;;;;;;5036892;28;20028;-60
2021/03/23 05:40:43;;;;;;;2.53;2.33;;;7.00;57.60;;;;;;5036624;28;20033;-59
2021/03/23 05:43:31;;;;;;;3.42;2.50;;;7.10;57.10;;;;;;5036803;28;20029;-59
2021/03/23 05:46:02;;;;;;;2.55;2.22;;;7.20;56.40;;;;;;5037642;28;20121;-60
2021/03/23 05:48:31;;;;;;;4.38;2.80;;;7.30;56.50;;;;;;5056791;28;20349;-59
2021/03/23 05:51:03;;;;;;;4.15;2.25;;;7.30;56.10;;;;;;5056412;28;20029;-58
2021/03/23 05:53:37;;;;;;;5.35;2.13;;;7.30;55.80;;;;;;5056371;28;20082;-60
2021/03/23 05:56:03;;;;;;;4.88;2.55;;;7.30;55.60;;;;;;5056420;28;20025;-60
2021/03/23 05:58:35;;;;;;;3.50;2.25;;;7.40;56.30;;;;;;5054147;28;20055;-60
2021/03/23 06:01:40;;;;;;;2.78;2.30;;;7.70;56.00;;;;;;5048841;28;20373;-60
2021/03/23 06:04:25;;;;;;;3.67;2.40;;;8.10;55.60;;;;;;4979172;28;20133;-60
2021/03/23 06:07:00;;;;;;;4.25;2.40;;;8.40;55.20;;;;;;5032802;28;20046;-63
2021/03/23 06:09:33;;;;;;;2.85;2.08;;;8.80;54.70;;;;;;5042037;28;20033;-63
2021/03/23 06:12:30;;;;;;;2.13;1.92;;;9.20;54.20;;;;;;5042846;28;20443;-60
2021/03/23 06:15:11;;;;;;;3.13;2.10;;;9.70;53.00;;;;;;5041401;28;20033;-60
2021/03/23 06:17:57;;;;;;;2.67;2.10;;;10.20;51.80;;;;;;5050150;28;20103;-60
2021/03/23 06:21:00;;;;;;;2.13;1.90;;;10.50;50.20;;;;;;5039895;28;20083;-60
2021/03/23 06:23:46;;;;;;;3.45;2.08;;;10.40;49.30;;;;;;5036779;28;20396;-61
2021/03/23 06:26:18;;;;;;;2.58;2.05;;;9.90;49.50;;;;;;5043551;28;20035;-60
2021/03/23 06:29:05;;;;;;;2.88;2.40;;;9.40;50.00;;;;;;5045871;28;20056;-58
2021/03/23 06:31:55;;;;;;;3.88;2.35;;;8.80;50.20;;;;;;5040831;28;20041;-60
2021/03/23 06:34:33;;;;;;;2.55;2.35;;;8.20;51.20;;;;;;5047133;28;20028;-61
2021/03/23 06:37:00;;;;;;;3.75;2.38;;;7.70;51.90;;;;;;5040316;28;20514;-61
2021/03/23 06:39:30;;;;;;;3.25;2.38;;;7.40;52.50;;;;;;5049128;28;20488;-61
2021/03/23 06:42:00;;;;;;;2.67;2.17;;;7.20;53.00;;;;;;5042903;28;20373;-61
2021/03/23 06:44:37;;;;;;;2.30;2.10;;;6.90;53.00;;;;;;5053783;28;20021;-60
2021/03/23 06:47:05;;;;;;;3.17;2.22;;;6.70;53.30;;;;;;5044592;28;20030;-61
2021/03/23 06:49:34;;;;;;;3.40;2.30;;;6.60;53.50;;;;;;5040348;28;20051;-61
2021/03/23 06:52:18;;;;;;;3.58;2.53;;;6.50;53.90;;;;;;5033174;28;20029;-61
2021/03/23 06:55:05;;;;;;;3.13;2.40;;;6.40;53.60;;;;;;5039580;28;20017;-61
2021/03/23 06:57:35;;;;;;;2.42;2.20;;;6.30;53.80;;;;;;5038584;28;20039;-61
2021/03/23 07:00:10;;;;;;;2.50;2.30;;;6.20;54.00;;;;;;5032591;28;20080;-62
2021/03/23 07:02:36;;;;;;;3.08;2.22;;;6.10;54.20;;;;;;5031764;28;20539;-61
2021/03/23 07:05:24;;;;;;;4.55;2.88;;;6.10;54.40;;;;;;5033403;28;20025;-61
2021/03/23 07:07:54;;;;;;;4.10;2.53;;;6.10;54.10;;;;;;5023759;28;20042;-60
2021/03/23 07:10:26;;;;;;;10.32;2.40;;;6.10;54.30;;;;;;5034134;28;20112;-61
2021/03/23 07:12:53;;;;;;;2.30;2.05;;;6.10;54.40;;;;;;5037757;28;20034;-61
2021/03/23 07:15:22;;;;;;;3.00;2.33;;;6.10;54.40;;;;;;5034084;28;20021;-61
2021/03/23 07:17:58;;;;;;;3.35;2.53;;;6.00;54.40;;;;;;5035831;28;20048;-61
2021/03/23 07:20:33;;;;;;;4.18;2.38;;;6.00;54.50;;;;;;5032730;28;20028;-60
2021/03/23 07:23:25;;;;;;;2.72;2.38;;;6.00;54.60;;;;;;5036072;28;20021;-63
2021/03/23 07:25:50;;;;;;;3.38;2.22;;;6.00;54.30;;;;;;5032236;28;20056;-61
2021/03/23 07:28:30;;;;;;;3.95;2.65;;;6.00;54.30;;;;;;5035490;28;20037;-61
2021/03/23 07:31:19;;;;;;;2.95;2.40;;;6.00;54.10;;;;;;5034402;28;20112;-61
2021/03/23 07:34:23;;;;;;;2.38;2.10;;;6.00;54.60;;;;;;5027689;28;20076;-62
2021/03/23 07:37:01;;;;;;;2.20;2.00;;;6.00;53.90;;;;;;5029836;28;20108;-61
2021/03/23 07:39:39;;;;;;;2.22;2.00;;;5.90;53.70;;;;;;5033198;28;20523;-61
2021/03/23 07:42:17;;;;;;;2.38;2.00;;;5.90;53.40;;;;;;5034782;28;20429;-61
2021/03/23 07:45:01;;;;;;;2.60;2.20;;;5.90;53.40;;;;;;5035475;28;20086;-61
2021/03/23 07:47:26;;;;;;;2.95;2.03;;;5.90;53.30;;;;;;5034189;28;20073;-62
2021/03/23 07:50:17;;;;;;;2.50;2.30;;;5.90;53.20;;;;;;5038228;28;20072;-62
2021/03/23 07:53:07;;;;;;;4.03;1.92;;;5.90;53.20;;;;;;5042602;28;20036;-61
2021/03/23 07:55:34;;;;;;;2.38;1.90;;;5.90;53.20;;;;;;5028677;28;20025;-61
2021/03/23 07:58:28;;;;;;;2.17;1.83;;;5.90;53.00;;;;;;5030513;28;20358;-60
2021/03/23 08:01:12;;;;;;;1.70;1.60;;;5.90;52.50;;;;;;5029518;28;20026;-62
2021/03/23 08:03:54;;;;;;;2.05;1.92;;;6.00;52.80;;;;;;5030376;28;20445;-61
2021/03/23 08:06:25;;;;;;;1.60;1.50;;;6.00;52.10;;;;;;5028736;28;20036;-61
2021/03/23 08:09:10;;;;;;;2.75;1.80;;;6.00;52.50;;;;;;5030001;28;20029;-61
2021/03/23 08:11:47;;;;;;;2.10;1.80;;;6.10;52.00;;;;;;5027477;28;20057;-61
2021/03/23 08:14:29;;;;;;;1.90;1.77;;;6.10;52.60;;;;;;5032220;28;20401;-62
2021/03/23 08:17:12;;;;;;;1.95;1.55;;;6.10;51.30;;;;;;5028184;28;20537;-61
2021/03/23 08:19:49;;;;;;;2.08;1.88;;;6.10;51.20;;;;;;5033481;28;20035;-61
2021/03/23 08:22:34;;;;;;;1.85;1.73;;;6.00;51.00;;;;;;5034824;28;20154;-61
2021/03/23 08:25:19;;;;;;;1.88;1.63;;;5.90;50.60;;;;;;5029979;28;20028;-60
2021/03/23 08:27:51;;;;;;;2.28;2.08;;;5.70;50.30;;;;;;5034028;28;20517;-61
2021/03/23 08:30:41;;;;;;;2.00;1.80;;;5.60;49.70;;;;;;5034247;28;20067;-61
2021/03/23 08:33:38;;;;;;;3.30;1.90;;;5.50;50.10;;;;;;5029530;28;20089;-61
2021/03/23 08:36:29;;;;;;;2.00;1.80;;;5.50;50.80;;;;;;5033823;28;20036;-61
2021/03/23 08:39:03;;;;;;;1.70;1.60;;;5.50;50.40;;;;;;5028543;28;20132;-61
2021/03/23 08:41:38;;;;;;;2.45;1.45;;;5.50;49.90;;;;;;5030361;28;20447;-61
2021/03/23 08:44:05;;;;;;;1.90;1.48;;;5.50;50.10;;;;;;5025698;28;20075;-61
2021/03/23 08:46:35;;;;;;;1.33;1.30;;;5.50;50.50;;;;;;5027978;28;20040;-61
2021/03/23 08:49:09;;;;;;;1.52;1.40;;;5.60;49.00;;;;;;5030021;28;20025;-61
2021/03/23 08:51:42;;;;;;;3.45;1.60;;;5.60;48.70;;;;;;5032358;28;20036;-61
2021/03/23 08:54:08;;;;;;;1.50;1.40;;;5.50;48.70;;;;;;5024228;28;20021;-61
2021/03/23 08:56:47;;;;;;;1.30;1.30;;;5.40;49.20;;;;;;5027112;28;20028;-60
2021/03/23 08:59:32;;;;;;;1.77;1.45;;;5.50;49.10;;;;;;5029037;28;20124;-61
2021/03/23 09:02:00;;;;;;;1.65;1.55;;;5.50;49.60;;;;;;5047426;28;20527;-61
2021/03/23 09:04:33;;;;;;;1.60;1.50;;;5.60;49.40;;;;;;5033128;28;20025;-61
2021/03/23 09:07:17;;;;;;;1.73;1.63;;;5.60;48.90;;;;;;5035797;28;20063;-61
2021/03/23 09:09:44;;;;;;;1.58;1.48;;;5.70;49.20;;;;;;5040487;28;20051;-61
2021/03/23 09:12:41;;;;;;;1.85;1.40;;;5.70;48.70;;;;;;5035351;28;20037;-61
2021/03/23 09:15:16;;;;;;;2.42;1.52;;;5.70;48.00;;;;;;5031666;28;20034;-61
2021/03/23 09:18:04;;;;;;;1.67;1.58;;;5.80;48.10;;;;;;5032931;28;20048;-61
2021/03/23 09:20:33;;;;;;;1.92;1.80;;;5.80;47.70;;;;;;5026043;28;20025;-61
2021/03/23 09:23:17;;;;;;;2.90;1.38;;;5.80;48.30;;;;;;5032476;28;20030;-61
2021/03/23 09:25:59;;;;;;;1.33;1.30;;;5.80;47.70;;;;;;5033163;28;20059;-61
2021/03/23 09:28:45;;;;;;;1.70;1.60;;;5.80;47.40;;;;;;5030781;28;20020;-60
2021/03/23 09:31:25;;;;;;;2.28;1.23;;;5.70;47.20;;;;;;5032852;28;20037;-61
2021/03/23 09:33:56;;;;;;;1.33;1.30;;;5.70;47.60;;;;;;5034006;28;20028;-61
2021/03/23 09:36:37;;;;;;;1.70;1.60;;;5.70;47.10;;;;;;5032543;28;20029;-60
2021/03/23 09:39:15;;;;;;;2.30;1.50;;;5.70;46.90;;;;;;5034712;28;20029;-60
2021/03/23 09:41:51;;;;;;;1.45;1.38;;;5.70;47.60;;;;;;5035395;28;20028;-60
2021/03/23 09:44:16;;;;;;;2.20;2.00;;;5.70;48.00;;;;;;5035292;28;20024;-60
2021/03/23 09:46:56;;;;;;;1.95;1.70;;;5.60;48.10;;;;;;5032703;28;20489;-59
2021/03/23 09:49:42;;;;;;;1.38;1.33;;;5.60;47.90;;;;;;5033453;28;20167;-60
2021/03/23 09:52:15;;;;;;;1.88;1.58;;;5.60;47.40;;;;;;5031440;28;20087;-60
2021/03/23 09:54:46;;;;;;;1.63;1.52;;;5.60;47.00;;;;;;5033259;28;20530;-60
2021/03/23 09:57:16;;;;;;;1.60;1.50;;;5.50;47.00;;;;;;5028480;28;20103;-61
2021/03/23 09:59:57;;;;;;;1.60;1.50;;;5.50;47.40;;;;;;5026816;28;20041;-60
2021/03/23 10:02:32;;;;;;;1.58;1.55;;;5.50;47.10;;;;;;5020089;28;20169;-60
2021/03/23 10:05:18;;;;;;;2.30;1.88;;;5.50;47.20;;;;;;5031120;28;20101;-60
2021/03/23 10:07:44;;;;;;;1.85;1.55;;;5.50;47.10;;;;;;5032941;28;20032;-60
2021/03/23 10:10:15;;;;;;;1.52;1.48;;;5.50;47.30;;;;;;5029312;28;20076;-60
2021/03/23 10:12:42;;;;;;;1.70;1.60;;;5.60;47.40;;;;;;5030034;28;20044;-60
2021/03/23 10:15:32;;;;;;;1.52;1.42;;;5.60;47.50;;;;;;5026734;28;20294;-60
2021/03/23 10:18:23;;;;;;;1.50;1.40;;;5.50;47.50;;;;;;5032271;28;20071;-60
2021/03/23 10:20:59;;;;;;;1.40;1.25;;;5.50;47.50;;;;;;5031751;28;20135;-62
2021/03/23 10:23:26;;;;;;;1.50;1.40;;;5.40;47.80;;;;;;5033871;28;20044;-60
2021/03/23 10:25:53;;;;;;;1.83;1.65;;;5.40;47.90;;;;;;5030748;28;20034;-60
2021/03/23 10:28:36;;;;;;;1.80;1.70;;;5.30;47.50;;;;;;5035789;28;20046;-60
2021/03/23 10:31:09;;;;;;;1.73;1.63;;;5.30;47.50;;;;;;5033079;28;20089;-61
2021/03/23 10:33:38;;;;;;;1.67;1.58;;;5.20;47.30;;;;;;5031873;28;20033;-59
2021/03/23 10:36:09;;;;;;;1.83;1.73;;;5.20;47.50;;;;;;5034950;28;20041;-60
2021/03/23 10:38:38;;;;;;;1.77;1.40;;;5.30;48.00;;;;;;5034115;28;20044;-60
2021/03/23 10:41:16;;;;;;;1.25;1.25;;;5.20;47.90;;;;;;5030547;28;20049;-61
2021/03/23 10:43:42;;;;;;;1.52;1.42;;;5.20;47.50;;;;;;5028803;28;20116;-60
2021/03/23 10:46:38;;;;;;;1.80;1.70;;;5.10;47.40;;;;;;5030693;28;20087;-60
2021/03/23 10:49:29;;;;;;;1.35;1.35;;;5.10;46.90;;;;;;5031717;28;20057;-60
2021/03/23 10:52:05;;;;;;;1.60;1.50;;;5.00;47.90;;;;;;5032407;28;20072;-60
2021/03/23 10:54:36;;;;;;;1.70;1.60;;;5.00;47.30;;;;;;5030959;28;20033;-60
2021/03/23 10:57:22;;;;;;;1.63;1.50;;;5.00;47.70;;;;;;5033001;28;20108;-60
2021/03/23 10:59:48;;;;;;;1.67;1.48;;;5.00;47.90;;;;;;5031546;28;20033;-61
2021/03/23 11:02:13;;;;;;;2.05;1.95;;;5.00;47.60;;;;;;5035423;28;20049;-60
2021/03/23 11:05:02;;;;;;;1.60;1.50;;;5.00;47.80;;;;;;5034703;28;20061;-60
2021/03/23 11:07:29;;;;;;;1.55;1.45;;;5.00;48.00;;;;;;5032183;28;20044;-61
2021/03/23 11:09:59;;;;;;;1.48;1.33;;;5.00;48.20;;;;;;5027553;28;20033;-60
2021/03/23 11:12:29;;;;;;;1.67;1.60;;;5.00;48.60;;;;;;5028515;28;20075;-60
2021/03/23 11:14:56;;;;;;;1.60;1.50;;;4.90;49.20;;;;;;5034946;28;20041;-58
2021/03/23 11:17:24;;;;;;;1.77;1.67;;;4.80;49.40;;;;;;5033113;28;20079;-60
2021/03/23 11:19:54;;;;;;;1.77;1.40;;;4.70;49.20;;;;;;5032740;28;20103;-60
2021/03/23 11:22:33;;;;;;;1.48;1.38;;;4.70;49.80;;;;;;5035880;28;20049;-63
2021/03/23 11:25:00;;;;;;;8.48;1.70;;;4.70;49.90;;;;;;5033043;28;20033;-61
2021/03/23 11:27:27;;;;;;;1.70;1.67;;;4.70;49.70;;;;;;5030089;28;20029;-61
2021/03/23 11:30:00;;;;;;;1.70;1.60;;;4.60;49.50;;;;;;5035276;28;20037;-61
2021/03/23 11:32:27;;;;;;;1.73;1.63;;;4.50;49.70;;;;;;5033789;28;20360;-61
2021/03/23 11:34:53;;;;;;;1.77;1.58;;;4.50;49.60;;;;;;5032189;28;20033;-61
2021/03/23 11:37:19;;;;;;;1.60;1.50;;;4.50;49.80;;;;;;5028997;28;21890;-62
2021/03/23 11:39:45;;;;;;;1.73;1.63;;;4.60;49.90;;;;;;5033754;28;20494;-62
2021/03/23 11:42:26;;;;;;;1.20;1.20;;;4.60;49.70;;;;;;5022836;28;20268;-62
2021/03/23 11:44:55;;;;;;;2.53;1.55;;;4.70;49.40;;;;;;5030928;28;20033;-62
2021/03/23 11:47:36;;;;;;;2.20;1.70;;;4.80;48.90;;;;;;5031232;28;20048;-61
2021/03/23 11:50:08;;;;;;;1.98;1.30;;;4.90;48.70;;;;;;5027477;28;20044;-61
2021/03/23 11:52:36;;;;;;;1.60;1.50;;;5.00;48.70;;;;;;5029637;28;20079;-62
2021/03/23 11:55:04;;;;;;;2.03;1.60;;;5.20;48.40;;;;;;5024534;28;20124;-61
2021/03/23 11:57:30;;;;;;;1.60;1.40;;;5.30;48.10;;;;;;5024751;28;20025;-61
2021/03/23 11:59:56;;;;;;;1.30;1.30;;;5.50;47.80;;;;;;5025412;28;20110;-62
2021/03/23 12:02:23;;;;;;;1.58;1.48;;;5.60;47.70;;;;;;5020909;28;20053;-62
2021/03/23 12:04:49;;;;;;;1.50;1.40;;;5.60;47.30;;;;;;5022087;28;20495;-61
2021/03/23 12:07:34;;;;;;;1.35;1.33;;;5.70;47.50;;;;;;5025210;28;20028;-62
2021/03/23 12:10:13;;;;;;;1.85;1.75;;;5.70;47.80;;;;;;5028621;28;20043;-64
2021/03/23 12:13:11;;;;;;;1.75;1.65;;;5.60;48.70;;;;;;5029836;28;20030;-64
2021/03/23 12:15:40;;;;;;;1.60;1.52;;;5.50;49.20;;;;;;5028920;28;20079;-62
2021/03/23 12:18:13;;;;;;;1.92;1.73;;;5.40;49.90;;;;;;5029751;28;20114;-62
2021/03/23 12:20:39;;;;;;;2.63;1.77;;;5.40;50.50;;;;;;5027878;28;20068;-62
2021/03/23 12:23:06;;;;;;;2.15;1.95;;;5.40;50.40;;;;;;5024422;28;20026;-61
2021/03/23 12:25:33;;;;;;;1.83;1.50;;;5.40;50.60;;;;;;5031092;28;20037;-61
2021/03/23 12:28:01;;;;;;;1.83;1.60;;;5.40;50.70;;;;;;5020736;28;20044;-63
2021/03/23 12:30:29;;;;;;;2.78;2.20;;;5.50;51.00;;;;;;5023496;28;20121;-63
2021/03/23 12:32:55;;;;;;;1.70;1.60;;;5.60;51.00;;;;;;5027591;28;20070;-61
2021/03/23 12:35:25;;;;;;;1.90;1.75;;;5.70;51.00;;;;;;5026656;28;20030;-61
2021/03/23 12:37:55;;;;;;;2.30;2.08;;;5.70;51.10;;;;;;5026908;28;20137;-61
2021/03/23 12:40:22;;;;;;;2.03;1.70;;;5.70;51.50;;;;;;5028245;28;20028;-61
2021/03/23 12:42:48;;;;;;;2.28;1.98;;;5.50;52.60;;;;;;5022052;28;20056;-61
2021/03/23 12:45:39;;;;;;;2.40;1.80;;;5.20;54.90;;;;;;5029637;28;20188;-61
2021/03/23 12:48:06;;;;;;;3.42;2.65;;;4.80;56.40;;;;;;5027370;28;20516;-61
2021/03/23 12:50:32;;;;;;;1.88;1.77;;;4.40;57.00;;;;;;5025993;28;20362;-62
2021/03/23 12:53:02;;;;;;;1.73;1.63;;;4.20;57.70;;;;;;5025317;28;20055;-61
2021/03/23 12:55:31;;;;;;;3.05;1.58;;;4.00;58.50;;;;;;5018603;28;20465;-61
2021/03/23 12:58:00;;;;;;;1.80;1.70;;;4.00;58.50;;;;;;5028799;28;20034;-61
2021/03/23 13:00:27;;;;;;;1.85;1.75;;;3.90;58.90;;;;;;5029451;28;20029;-62
2021/03/23 13:02:54;;;;;;;2.30;1.70;;;4.00;59.30;;;;;;5028169;28;20046;-62
2021/03/23 13:05:20;;;;;;;1.50;1.40;;;4.00;59.40;;;;;;5028945;28;20036;-62
2021/03/23 13:07:48;;;;;;;1.90;1.80;;;4.10;59.80;;;;;;5029249;28;20044;-62
2021/03/23 13:10:35;;;;;;;1.30;1.30;;;4.20;59.60;;;;;;5028387;28;20435;-61
2021/03/23 13:13:11;;;;;;;2.00;1.90;;;4.30;59.70;;;;;;5020116;28;20040;-62
2021/03/23 13:15:37;;;;;;;1.52;1.42;;;4.40;59.60;;;;;;5027124;28;20029;-61
2021/03/23 13:18:03;;;;;;;2.28;1.80;;;4.50;59.10;;;;;;5027052;28;20096;-62
2021/03/23 13:20:28;;;;;;;1.65;1.55;;;4.50;58.80;;;;;;5026765;28;20033;-61
2021/03/23 13:23:01;;;;;;;1.70;1.60;;;4.50;58.60;;;;;;5024675;28;20056;-61